sensor_id;sensor_type;location;lat;lon;timestamp;P1;durP1;ratioP1;P2;durP2;ratioP2
19675;SDS011;39539;52.202;9.876;2023-03-01T00:00:39;10.90;;;9.73;;
19675;SDS011;39539;52.202;9.876;2023-03-01T00:03:06;12.00;;;10.40;;
19675;SDS011;39539;52.202;9.876;2023-03-01T00:05:31;12.48;;;11.00;;
19675;SDS011;39539;52.202;9.876;2023-03-01T00:07:57;11.75;;;10.50;;
19675;SDS011;39539;52.202;9.876;2023-03-01T00:10:23;11.55;;;10.52;;
19675;SDS011;39539;52.202;9.876;2023-03-01T00:12:51;11.43;;;10.25;;
19675;SDS011;39539;52.202;9.876;2023-03-01T00:15:16;12.52;;;11.23;;
19675;SDS011;39539;52.202;9.876;2023-03-01T00:17:42;12.70;;;10.65;;
19675;SDS011;39539;52.202;9.876;2023-03-01T00:20:07;13.30;;;11.90;;
19675;SDS011;39539;52.202;9.876;2023-03-01T00:22:35;15.48;;;11.15;;
19675;SDS011;39539;52.202;9.876;2023-03-01T00:25:00;16.05;;;12.40;;
19675;SDS011;39539;52.202;9.876;2023-03-01T00:27:26;13.70;;;12.13;;
19675;SDS011;39539;52.202;9.876;2023-03-01T00:29:51;14.68;;;11.98;;
19675;SDS011;39539;52.202;9.876;2023-03-01T00:32:17;13.13;;;11.80;;
19675;SDS011;39539;52.202;9.876;2023-03-01T00:34:42;15.60;;;11.38;;
19675;SDS011;39539;52.202;9.876;2023-03-01T00:37:14;14.82;;;12.30;;
19675;SDS011;39539;52.202;9.876;2023-03-01T00:39:39;12.98;;;11.68;;
19675;SDS011;39539;52.202;9.876;2023-03-01T00:42:04;13.93;;;11.35;;
19675;SDS011;39539;52.202;9.876;2023-03-01T00:44:29;12.98;;;11.30;;
19675;SDS011;39539;52.202;9.876;2023-03-01T00:46:55;14.60;;;11.77;;
19675;SDS011;39539;52.202;9.876;2023-03-01T00:49:20;14.23;;;11.88;;
19675;SDS011;39539;52.202;9.876;2023-03-01T00:51:46;15.27;;;11.88;;
19675;SDS011;39539;52.202;9.876;2023-03-01T00:54:11;13.50;;;12.10;;
19675;SDS011;39539;52.202;9.876;2023-03-01T00:56:36;13.88;;;10.65;;
19675;SDS011;39539;52.202;9.876;2023-03-01T00:59:02;13.77;;;11.43;;
19675;SDS011;39539;52.202;9.876;2023-03-01T01:01:28;15.30;;;11.10;;
19675;SDS011;39539;52.202;9.876;2023-03-01T01:03:56;11.88;;;10.63;;
19675;SDS011;39539;52.202;9.876;2023-03-01T01:06:24;12.77;;;11.48;;
19675;SDS011;39539;52.202;9.876;2023-03-01T01:08:52;13.02;;;11.60;;
19675;SDS011;39539;52.202;9.876;2023-03-01T01:11:19;12.85;;;11.55;;
19675;SDS011;39539;52.202;9.876;2023-03-01T01:13:45;14.32;;;11.60;;
19675;SDS011;39539;52.202;9.876;2023-03-01T01:16:12;13.65;;;9.60;;
19675;SDS011;39539;52.202;9.876;2023-03-01T01:18:38;12.38;;;10.63;;
19675;SDS011;39539;52.202;9.876;2023-03-01T01:21:09;13.75;;;10.23;;
19675;SDS011;39539;52.202;9.876;2023-03-01T01:23:36;11.68;;;10.50;;
19675;SDS011;39539;52.202;9.876;2023-03-01T01:26:05;12.98;;;10.80;;
19675;SDS011;39539;52.202;9.876;2023-03-01T01:28:32;13.40;;;10.85;;
19675;SDS011;39539;52.202;9.876;2023-03-01T01:30:58;12.88;;;11.57;;
19675;SDS011;39539;52.202;9.876;2023-03-01T01:33:23;12.98;;;11.35;;
19675;SDS011;39539;52.202;9.876;2023-03-01T01:35:49;15.65;;;11.95;;
19675;SDS011;39539;52.202;9.876;2023-03-01T01:38:14;12.48;;;11.27;;
19675;SDS011;39539;52.202;9.876;2023-03-01T01:40:45;12.80;;;10.93;;
19675;SDS011;39539;52.202;9.876;2023-03-01T01:43:19;11.73;;;10.43;;
19675;SDS011;39539;52.202;9.876;2023-03-01T01:45:50;11.75;;;10.57;;
19675;SDS011;39539;52.202;9.876;2023-03-01T01:48:21;14.15;;;11.85;;
19675;SDS011;39539;52.202;9.876;2023-03-01T01:50:51;12.23;;;10.98;;
19675;SDS011;39539;52.202;9.876;2023-03-01T01:53:21;12.60;;;11.30;;
19675;SDS011;39539;52.202;9.876;2023-03-01T01:55:49;14.55;;;11.05;;
19675;SDS011;39539;52.202;9.876;2023-03-01T01:58:19;13.07;;;11.35;;
19675;SDS011;39539;52.202;9.876;2023-03-01T02:00:46;12.82;;;11.02;;
19675;SDS011;39539;52.202;9.876;2023-03-01T02:03:14;13.20;;;10.60;;
19675;SDS011;39539;52.202;9.876;2023-03-01T02:05:50;12.45;;;10.90;;
19675;SDS011;39539;52.202;9.876;2023-03-01T02:08:18;14.35;;;11.98;;
19675;SDS011;39539;52.202;9.876;2023-03-01T02:10:45;12.80;;;11.57;;
19675;SDS011;39539;52.202;9.876;2023-03-01T02:13:12;13.50;;;11.93;;
19675;SDS011;39539;52.202;9.876;2023-03-01T02:15:38;14.45;;;12.00;;
19675;SDS011;39539;52.202;9.876;2023-03-01T02:18:05;13.30;;;11.85;;
19675;SDS011;39539;52.202;9.876;2023-03-01T02:20:39;14.13;;;12.65;;
19675;SDS011;39539;52.202;9.876;2023-03-01T02:23:07;12.90;;;11.43;;
19675;SDS011;39539;52.202;9.876;2023-03-01T02:25:40;14.70;;;11.73;;
19675;SDS011;39539;52.202;9.876;2023-03-01T02:30:43;13.70;;;12.30;;
19675;SDS011;39539;52.202;9.876;2023-03-01T02:33:30;15.32;;;12.10;;
19675;SDS011;39539;52.202;9.876;2023-03-01T02:36:01;14.52;;;12.45;;
19675;SDS011;39539;52.202;9.876;2023-03-01T02:38:31;13.65;;;11.93;;
19675;SDS011;39539;52.202;9.876;2023-03-01T02:40:57;13.65;;;12.25;;
19675;SDS011;39539;52.202;9.876;2023-03-01T02:43:26;15.50;;;13.52;;
19675;SDS011;39539;52.202;9.876;2023-03-01T02:45:57;12.80;;;11.50;;
19675;SDS011;39539;52.202;9.876;2023-03-01T02:48:24;12.98;;;11.40;;
19675;SDS011;39539;52.202;9.876;2023-03-01T02:51:02;11.50;;;10.38;;
19675;SDS011;39539;52.202;9.876;2023-03-01T02:56:16;11.35;;;10.18;;
19675;SDS011;39539;52.202;9.876;2023-03-01T02:58:42;12.55;;;10.38;;
19675;SDS011;39539;52.202;9.876;2023-03-01T03:01:16;12.38;;;11.00;;
19675;SDS011;39539;52.202;9.876;2023-03-01T03:03:42;14.40;;;11.82;;
19675;SDS011;39539;52.202;9.876;2023-03-01T03:06:07;14.75;;;10.98;;
19675;SDS011;39539;52.202;9.876;2023-03-01T03:08:34;13.27;;;11.73;;
19675;SDS011;39539;52.202;9.876;2023-03-01T03:10:59;13.40;;;11.55;;
19675;SDS011;39539;52.202;9.876;2023-03-01T03:13:24;12.23;;;10.82;;
19675;SDS011;39539;52.202;9.876;2023-03-01T03:15:53;13.98;;;11.35;;
19675;SDS011;39539;52.202;9.876;2023-03-01T03:18:20;15.65;;;11.05;;
19675;SDS011;39539;52.202;9.876;2023-03-01T03:20:47;12.15;;;10.68;;
19675;SDS011;39539;52.202;9.876;2023-03-01T03:23:17;11.95;;;10.13;;
19675;SDS011;39539;52.202;9.876;2023-03-01T03:25:43;11.98;;;10.18;;
19675;SDS011;39539;52.202;9.876;2023-03-01T03:28:08;11.27;;;9.75;;
19675;SDS011;39539;52.202;9.876;2023-03-01T03:30:38;14.13;;;10.57;;
19675;SDS011;39539;52.202;9.876;2023-03-01T03:33:05;12.38;;;9.52;;
19675;SDS011;39539;52.202;9.876;2023-03-01T03:35:32;12.70;;;10.30;;
19675;SDS011;39539;52.202;9.876;2023-03-01T03:38:04;11.80;;;9.82;;
19675;SDS011;39539;52.202;9.876;2023-03-01T03:40:38;10.98;;;9.85;;
19675;SDS011;39539;52.202;9.876;2023-03-01T03:43:06;13.60;;;10.85;;
19675;SDS011;39539;52.202;9.876;2023-03-01T03:45:33;13.13;;;9.82;;
19675;SDS011;39539;52.202;9.876;2023-03-01T03:48:00;13.18;;;11.30;;
19675;SDS011;39539;52.202;9.876;2023-03-01T03:50:26;11.77;;;10.60;;
19675;SDS011;39539;52.202;9.876;2023-03-01T03:52:51;12.07;;;9.85;;
19675;SDS011;39539;52.202;9.876;2023-03-01T03:55:17;15.45;;;11.18;;
19675;SDS011;39539;52.202;9.876;2023-03-01T03:57:44;13.63;;;11.93;;
19675;SDS011;39539;52.202;9.876;2023-03-01T04:00:16;14.52;;;11.55;;
19675;SDS011;39539;52.202;9.876;2023-03-01T04:02:46;15.18;;;12.57;;
19675;SDS011;39539;52.202;9.876;2023-03-01T04:05:14;13.20;;;11.25;;
19675;SDS011;39539;52.202;9.876;2023-03-01T04:07:41;13.95;;;11.88;;
19675;SDS011;39539;52.202;9.876;2023-03-01T04:10:08;13.55;;;12.18;;
19675;SDS011;39539;52.202;9.876;2023-03-01T04:12:36;15.25;;;11.18;;
19675;SDS011;39539;52.202;9.876;2023-03-01T04:15:02;12.80;;;11.43;;
19675;SDS011;39539;52.202;9.876;2023-03-01T04:17:37;13.90;;;11.23;;
19675;SDS011;39539;52.202;9.876;2023-03-01T04:20:04;13.50;;;11.98;;
19675;SDS011;39539;52.202;9.876;2023-03-01T04:22:30;14.32;;;11.10;;
19675;SDS011;39539;52.202;9.876;2023-03-01T04:24:57;12.25;;;10.95;;
19675;SDS011;39539;52.202;9.876;2023-03-01T04:27:22;14.18;;;10.50;;
19675;SDS011;39539;52.202;9.876;2023-03-01T04:29:47;16.08;;;11.65;;
19675;SDS011;39539;52.202;9.876;2023-03-01T04:32:13;12.85;;;10.80;;
19675;SDS011;39539;52.202;9.876;2023-03-01T04:34:41;13.50;;;10.13;;
19675;SDS011;39539;52.202;9.876;2023-03-01T04:37:06;14.13;;;11.23;;
19675;SDS011;39539;52.202;9.876;2023-03-01T04:39:31;12.55;;;10.73;;
19675;SDS011;39539;52.202;9.876;2023-03-01T04:41:57;14.15;;;11.07;;
19675;SDS011;39539;52.202;9.876;2023-03-01T04:44:23;17.65;;;13.40;;
19675;SDS011;39539;52.202;9.876;2023-03-01T04:46:49;12.68;;;10.93;;
19675;SDS011;39539;52.202;9.876;2023-03-01T04:49:15;12.77;;;10.82;;
19675;SDS011;39539;52.202;9.876;2023-03-01T04:51:41;13.27;;;11.27;;
19675;SDS011;39539;52.202;9.876;2023-03-01T04:54:06;16.50;;;11.30;;
19675;SDS011;39539;52.202;9.876;2023-03-01T04:56:34;11.75;;;10.45;;
19675;SDS011;39539;52.202;9.876;2023-03-01T04:59:02;12.73;;;11.15;;
19675;SDS011;39539;52.202;9.876;2023-03-01T05:01:30;16.42;;;12.23;;
19675;SDS011;39539;52.202;9.876;2023-03-01T05:03:55;13.93;;;11.63;;
19675;SDS011;39539;52.202;9.876;2023-03-01T05:06:27;12.32;;;10.98;;
19675;SDS011;39539;52.202;9.876;2023-03-01T05:08:53;12.73;;;10.95;;
19675;SDS011;39539;52.202;9.876;2023-03-01T05:11:18;12.07;;;10.23;;
19675;SDS011;39539;52.202;9.876;2023-03-01T05:13:44;16.67;;;11.45;;
19675;SDS011;39539;52.202;9.876;2023-03-01T05:16:10;13.38;;;11.55;;
19675;SDS011;39539;52.202;9.876;2023-03-01T05:18:36;14.02;;;11.65;;
19675;SDS011;39539;52.202;9.876;2023-03-01T05:21:03;14.85;;;11.70;;
19675;SDS011;39539;52.202;9.876;2023-03-01T05:23:31;12.50;;;11.18;;
19675;SDS011;39539;52.202;9.876;2023-03-01T05:25:58;12.27;;;10.95;;
19675;SDS011;39539;52.202;9.876;2023-03-01T05:28:24;13.13;;;10.57;;
19675;SDS011;39539;52.202;9.876;2023-03-01T05:30:50;12.65;;;9.95;;
19675;SDS011;39539;52.202;9.876;2023-03-01T05:33:16;10.70;;;9.68;;
19675;SDS011;39539;52.202;9.876;2023-03-01T05:35:43;12.63;;;11.10;;
19675;SDS011;39539;52.202;9.876;2023-03-01T05:38:10;13.30;;;11.43;;
19675;SDS011;39539;52.202;9.876;2023-03-01T05:40:38;12.80;;;10.48;;
19675;SDS011;39539;52.202;9.876;2023-03-01T05:43:04;14.63;;;11.77;;
19675;SDS011;39539;52.202;9.876;2023-03-01T05:45:30;13.88;;;11.05;;
19675;SDS011;39539;52.202;9.876;2023-03-01T05:47:57;17.20;;;11.23;;
19675;SDS011;39539;52.202;9.876;2023-03-01T05:50:27;12.10;;;10.52;;
19675;SDS011;39539;52.202;9.876;2023-03-01T05:52:58;25.83;;;12.02;;
19675;SDS011;39539;52.202;9.876;2023-03-01T05:55:25;19.33;;;12.20;;
19675;SDS011;39539;52.202;9.876;2023-03-01T05:57:51;14.98;;;11.98;;
19675;SDS011;39539;52.202;9.876;2023-03-01T06:00:17;15.13;;;11.43;;
19675;SDS011;39539;52.202;9.876;2023-03-01T06:02:45;12.75;;;10.88;;
19675;SDS011;39539;52.202;9.876;2023-03-01T06:05:11;12.85;;;10.32;;
19675;SDS011;39539;52.202;9.876;2023-03-01T06:07:37;12.18;;;10.88;;
19675;SDS011;39539;52.202;9.876;2023-03-01T06:10:04;13.35;;;11.90;;
19675;SDS011;39539;52.202;9.876;2023-03-01T06:12:31;12.85;;;10.60;;
19675;SDS011;39539;52.202;9.876;2023-03-01T06:14:57;13.05;;;11.65;;
19675;SDS011;39539;52.202;9.876;2023-03-01T06:17:23;12.85;;;11.63;;
19675;SDS011;39539;52.202;9.876;2023-03-01T06:19:49;15.53;;;11.33;;
19675;SDS011;39539;52.202;9.876;2023-03-01T06:22:14;15.43;;;11.10;;
19675;SDS011;39539;52.202;9.876;2023-03-01T06:24:39;19.73;;;11.63;;
19675;SDS011;39539;52.202;9.876;2023-03-01T06:27:05;12.73;;;11.10;;
19675;SDS011;39539;52.202;9.876;2023-03-01T06:29:30;13.70;;;12.02;;
19675;SDS011;39539;52.202;9.876;2023-03-01T06:31:55;12.68;;;10.95;;
19675;SDS011;39539;52.202;9.876;2023-03-01T06:34:21;12.32;;;10.95;;
19675;SDS011;39539;52.202;9.876;2023-03-01T06:36:46;12.13;;;10.65;;
19675;SDS011;39539;52.202;9.876;2023-03-01T06:39:12;14.82;;;11.57;;
19675;SDS011;39539;52.202;9.876;2023-03-01T06:41:37;15.00;;;11.55;;
19675;SDS011;39539;52.202;9.876;2023-03-01T06:44:03;14.07;;;10.90;;
19675;SDS011;39539;52.202;9.876;2023-03-01T06:46:28;34.55;;;11.38;;
19675;SDS011;39539;52.202;9.876;2023-03-01T06:48:54;22.45;;;11.25;;
19675;SDS011;39539;52.202;9.876;2023-03-01T06:51:19;14.55;;;11.00;;
19675;SDS011;39539;52.202;9.876;2023-03-01T06:53:45;14.48;;;10.88;;
19675;SDS011;39539;52.202;9.876;2023-03-01T06:56:11;15.48;;;11.35;;
19675;SDS011;39539;52.202;9.876;2023-03-01T06:58:37;13.38;;;11.25;;
19675;SDS011;39539;52.202;9.876;2023-03-01T07:01:09;12.97;;;10.03;;
19675;SDS011;39539;52.202;9.876;2023-03-01T07:03:34;11.85;;;10.05;;
19675;SDS011;39539;52.202;9.876;2023-03-01T07:06:00;13.65;;;10.90;;
19675;SDS011;39539;52.202;9.876;2023-03-01T07:08:25;13.85;;;10.48;;
19675;SDS011;39539;52.202;9.876;2023-03-01T07:10:54;14.50;;;10.52;;
19675;SDS011;39539;52.202;9.876;2023-03-01T07:13:23;10.32;;;9.23;;
19675;SDS011;39539;52.202;9.876;2023-03-01T07:15:48;10.82;;;8.77;;
19675;SDS011;39539;52.202;9.876;2023-03-01T07:18:14;11.27;;;9.30;;
19675;SDS011;39539;52.202;9.876;2023-03-01T07:20:39;19.27;;;10.10;;
19675;SDS011;39539;52.202;9.876;2023-03-01T07:23:05;10.13;;;9.20;;
19675;SDS011;39539;52.202;9.876;2023-03-01T07:25:31;10.27;;;9.38;;
19675;SDS011;39539;52.202;9.876;2023-03-01T07:27:57;10.45;;;9.55;;
19675;SDS011;39539;52.202;9.876;2023-03-01T07:30:23;10.50;;;9.60;;
19675;SDS011;39539;52.202;9.876;2023-03-01T07:32:51;10.65;;;9.95;;
19675;SDS011;39539;52.202;9.876;2023-03-01T07:35:17;10.40;;;9.57;;
19675;SDS011;39539;52.202;9.876;2023-03-01T07:37:42;10.55;;;9.65;;
19675;SDS011;39539;52.202;9.876;2023-03-01T07:40:08;10.32;;;9.52;;
19675;SDS011;39539;52.202;9.876;2023-03-01T07:42:34;10.25;;;9.55;;
19675;SDS011;39539;52.202;9.876;2023-03-01T07:45:00;10.52;;;9.52;;
19675;SDS011;39539;52.202;9.876;2023-03-01T07:47:25;10.45;;;9.65;;
19675;SDS011;39539;52.202;9.876;2023-03-01T07:49:50;10.98;;;10.18;;
19675;SDS011;39539;52.202;9.876;2023-03-01T07:52:16;10.93;;;10.10;;
19675;SDS011;39539;52.202;9.876;2023-03-01T07:54:44;10.48;;;9.70;;
19675;SDS011;39539;52.202;9.876;2023-03-01T07:57:10;10.48;;;9.68;;
19675;SDS011;39539;52.202;9.876;2023-03-01T07:59:35;11.13;;;10.10;;
19675;SDS011;39539;52.202;9.876;2023-03-01T08:02:01;11.18;;;10.10;;
19675;SDS011;39539;52.202;9.876;2023-03-01T08:04:26;17.02;;;15.52;;
19675;SDS011;39539;52.202;9.876;2023-03-01T08:06:52;12.15;;;11.10;;
19675;SDS011;39539;52.202;9.876;2023-03-01T08:09:18;10.98;;;9.98;;
19675;SDS011;39539;52.202;9.876;2023-03-01T08:11:43;11.18;;;10.25;;
19675;SDS011;39539;52.202;9.876;2023-03-01T08:14:09;11.05;;;10.25;;
19675;SDS011;39539;52.202;9.876;2023-03-01T08:16:35;10.50;;;9.70;;
19675;SDS011;39539;52.202;9.876;2023-03-01T08:19:08;11.82;;;10.45;;
19675;SDS011;39539;52.202;9.876;2023-03-01T08:21:36;11.57;;;10.57;;
19675;SDS011;39539;52.202;9.876;2023-03-01T08:24:05;11.45;;;10.57;;
19675;SDS011;39539;52.202;9.876;2023-03-01T08:26:32;10.10;;;9.40;;
19675;SDS011;39539;52.202;9.876;2023-03-01T08:28:58;11.13;;;10.13;;
19675;SDS011;39539;52.202;9.876;2023-03-01T08:31:26;10.48;;;9.68;;
19675;SDS011;39539;52.202;9.876;2023-03-01T08:33:54;13.93;;;10.18;;
19675;SDS011;39539;52.202;9.876;2023-03-01T08:36:23;11.23;;;10.32;;
19675;SDS011;39539;52.202;9.876;2023-03-01T08:38:50;11.18;;;10.27;;
19675;SDS011;39539;52.202;9.876;2023-03-01T08:41:15;11.73;;;10.57;;
19675;SDS011;39539;52.202;9.876;2023-03-01T08:43:42;12.05;;;11.02;;
19675;SDS011;39539;52.202;9.876;2023-03-01T08:46:09;12.82;;;11.63;;
19675;SDS011;39539;52.202;9.876;2023-03-01T08:48:35;12.60;;;11.40;;
19675;SDS011;39539;52.202;9.876;2023-03-01T08:51:11;12.75;;;11.63;;
19675;SDS011;39539;52.202;9.876;2023-03-01T08:53:39;12.07;;;11.23;;
19675;SDS011;39539;52.202;9.876;2023-03-01T08:56:06;11.43;;;10.52;;
19675;SDS011;39539;52.202;9.876;2023-03-01T08:58:32;11.50;;;10.60;;
19675;SDS011;39539;52.202;9.876;2023-03-01T09:00:57;11.48;;;10.63;;
19675;SDS011;39539;52.202;9.876;2023-03-01T09:03:23;12.55;;;11.55;;
19675;SDS011;39539;52.202;9.876;2023-03-01T09:05:50;12.52;;;11.52;;
19675;SDS011;39539;52.202;9.876;2023-03-01T09:08:16;11.57;;;10.57;;
19675;SDS011;39539;52.202;9.876;2023-03-01T09:10:42;11.43;;;10.52;;
19675;SDS011;39539;52.202;9.876;2023-03-01T09:13:09;11.75;;;10.75;;
19675;SDS011;39539;52.202;9.876;2023-03-01T09:15:36;11.45;;;10.65;;
19675;SDS011;39539;52.202;9.876;2023-03-01T09:18:02;11.07;;;10.20;;
19675;SDS011;39539;52.202;9.876;2023-03-01T09:20:28;12.60;;;11.43;;
19675;SDS011;39539;52.202;9.876;2023-03-01T09:22:55;11.88;;;10.88;;
19675;SDS011;39539;52.202;9.876;2023-03-01T09:25:21;12.13;;;11.13;;
19675;SDS011;39539;52.202;9.876;2023-03-01T09:27:47;12.93;;;11.63;;
19675;SDS011;39539;52.202;9.876;2023-03-01T09:30:12;12.57;;;11.35;;
19675;SDS011;39539;52.202;9.876;2023-03-01T09:32:38;11.75;;;10.77;;
19675;SDS011;39539;52.202;9.876;2023-03-01T09:35:08;11.85;;;10.68;;
19675;SDS011;39539;52.202;9.876;2023-03-01T09:37:34;13.48;;;11.07;;
19675;SDS011;39539;52.202;9.876;2023-03-01T09:40:00;11.68;;;10.55;;
19675;SDS011;39539;52.202;9.876;2023-03-01T09:42:29;11.88;;;9.90;;
19675;SDS011;39539;52.202;9.876;2023-03-01T09:45:05;11.13;;;10.05;;
19675;SDS011;39539;52.202;9.876;2023-03-01T09:47:36;11.43;;;10.43;;
19675;SDS011;39539;52.202;9.876;2023-03-01T09:50:15;12.00;;;10.80;;
19675;SDS011;39539;52.202;9.876;2023-03-01T09:55:29;12.60;;;11.25;;
19675;SDS011;39539;52.202;9.876;2023-03-01T09:58:00;11.82;;;10.73;;
19675;SDS011;39539;52.202;9.876;2023-03-01T10:00:49;11.05;;;10.15;;
19675;SDS011;39539;52.202;9.876;2023-03-01T10:08:42;9.75;;;8.85;;
19675;SDS011;39539;52.202;9.876;2023-03-01T10:11:23;10.50;;;9.25;;
19675;SDS011;39539;52.202;9.876;2023-03-01T10:19:42;31.25;;;10.35;;
19675;SDS011;39539;52.202;9.876;2023-03-01T10:22:24;10.65;;;8.57;;
19675;SDS011;39539;52.202;9.876;2023-03-01T10:24:53;9.57;;;8.70;;
19675;SDS011;39539;52.202;9.876;2023-03-01T10:27:26;8.27;;;7.47;;
19675;SDS011;39539;52.202;9.876;2023-03-01T10:30:07;9.32;;;8.32;;
19675;SDS011;39539;52.202;9.876;2023-03-01T10:32:45;8.85;;;8.05;;
19675;SDS011;39539;52.202;9.876;2023-03-01T10:38:25;8.50;;;7.60;;
19675;SDS011;39539;52.202;9.876;2023-03-01T10:40:49;8.18;;;7.07;;
19675;SDS011;39539;52.202;9.876;2023-03-01T10:43:18;8.68;;;7.07;;
19675;SDS011;39539;52.202;9.876;2023-03-01T10:45:44;7.75;;;6.93;;
19675;SDS011;39539;52.202;9.876;2023-03-01T10:48:14;8.52;;;7.68;;
19675;SDS011;39539;52.202;9.876;2023-03-01T10:50:42;9.48;;;8.60;;
19675;SDS011;39539;52.202;9.876;2023-03-01T10:56:07;7.80;;;7.07;;
19675;SDS011;39539;52.202;9.876;2023-03-01T10:58:35;7.88;;;7.07;;
19675;SDS011;39539;52.202;9.876;2023-03-01T11:03:41;7.75;;;6.82;;
19675;SDS011;39539;52.202;9.876;2023-03-01T11:08:42;7.95;;;6.63;;
19675;SDS011;39539;52.202;9.876;2023-03-01T11:13:37;7.80;;;7.00;;
19675;SDS011;39539;52.202;9.876;2023-03-01T11:16:14;6.70;;;6.00;;
19675;SDS011;39539;52.202;9.876;2023-03-01T11:18:39;7.43;;;6.72;;
19675;SDS011;39539;52.202;9.876;2023-03-01T11:21:05;6.30;;;5.70;;
19675;SDS011;39539;52.202;9.876;2023-03-01T11:23:33;7.70;;;6.75;;
19675;SDS011;39539;52.202;9.876;2023-03-01T11:26:04;6.78;;;6.10;;
19675;SDS011;39539;52.202;9.876;2023-03-01T11:28:33;7.38;;;5.68;;
19675;SDS011;39539;52.202;9.876;2023-03-01T11:31:03;6.10;;;5.40;;
19675;SDS011;39539;52.202;9.876;2023-03-01T11:33:41;7.18;;;5.63;;
19675;SDS011;39539;52.202;9.876;2023-03-01T11:42:02;6.93;;;6.25;;
19675;SDS011;39539;52.202;9.876;2023-03-01T11:44:39;10.77;;;5.82;;
19675;SDS011;39539;52.202;9.876;2023-03-01T11:52:43;6.72;;;5.72;;
19675;SDS011;39539;52.202;9.876;2023-03-01T12:03:46;7.20;;;6.50;;
19675;SDS011;39539;52.202;9.876;2023-03-01T12:06:47;6.72;;;6.05;;
19675;SDS011;39539;52.202;9.876;2023-03-01T12:20:09;7.15;;;5.90;;
19675;SDS011;39539;52.202;9.876;2023-03-01T12:22:56;6.50;;;5.82;;
19675;SDS011;39539;52.202;9.876;2023-03-01T12:25:51;6.97;;;6.28;;
19675;SDS011;39539;52.202;9.876;2023-03-01T12:28:31;6.30;;;5.70;;
19675;SDS011;39539;52.202;9.876;2023-03-01T12:36:44;6.63;;;6.05;;
19675;SDS011;39539;52.202;9.876;2023-03-01T12:39:42;6.05;;;5.45;;
19675;SDS011;39539;52.202;9.876;2023-03-01T12:42:17;7.93;;;5.93;;
19675;SDS011;39539;52.202;9.876;2023-03-01T12:50:11;6.18;;;5.18;;
19675;SDS011;39539;52.202;9.876;2023-03-01T12:52:47;5.45;;;4.95;;
19675;SDS011;39539;52.202;9.876;2023-03-01T12:55:19;5.93;;;5.40;;
19675;SDS011;39539;52.202;9.876;2023-03-01T13:01:10;6.30;;;5.68;;
19675;SDS011;39539;52.202;9.876;2023-03-01T13:15:32;5.65;;;5.13;;
19675;SDS011;39539;52.202;9.876;2023-03-01T13:18:01;6.10;;;5.30;;
19675;SDS011;39539;52.202;9.876;2023-03-01T13:34:01;5.60;;;5.10;;
19675;SDS011;39539;52.202;9.876;2023-03-01T13:49:36;4.90;;;4.38;;
19675;SDS011;39539;52.202;9.876;2023-03-01T13:52:21;5.28;;;4.78;;
19675;SDS011;39539;52.202;9.876;2023-03-01T13:55:27;5.07;;;4.57;;
19675;SDS011;39539;52.202;9.876;2023-03-01T13:57:51;4.80;;;4.40;;
19675;SDS011;39539;52.202;9.876;2023-03-01T14:00:31;5.30;;;4.75;;
19675;SDS011;39539;52.202;9.876;2023-03-01T14:03:00;4.53;;;4.13;;
19675;SDS011;39539;52.202;9.876;2023-03-01T14:06:05;5.28;;;4.72;;
19675;SDS011;39539;52.202;9.876;2023-03-01T14:08:33;5.00;;;4.50;;
19675;SDS011;39539;52.202;9.876;2023-03-01T14:21:41;4.80;;;4.30;;
19675;SDS011;39539;52.202;9.876;2023-03-01T14:24:15;4.88;;;4.47;;
19675;SDS011;39539;52.202;9.876;2023-03-01T14:26:43;5.70;;;4.60;;
19675;SDS011;39539;52.202;9.876;2023-03-01T14:29:33;5.47;;;4.97;;
19675;SDS011;39539;52.202;9.876;2023-03-01T14:32:10;4.97;;;4.53;;
19675;SDS011;39539;52.202;9.876;2023-03-01T14:34:47;4.57;;;4.18;;
19675;SDS011;39539;52.202;9.876;2023-03-01T14:37:30;4.97;;;4.40;;
19675;SDS011;39539;52.202;9.876;2023-03-01T14:39:59;4.15;;;3.75;;
19675;SDS011;39539;52.202;9.876;2023-03-01T14:42:28;4.93;;;4.15;;
19675;SDS011;39539;52.202;9.876;2023-03-01T14:44:57;4.97;;;4.43;;
19675;SDS011;39539;52.202;9.876;2023-03-01T14:47:27;4.72;;;4.30;;
19675;SDS011;39539;52.202;9.876;2023-03-01T14:49:59;4.93;;;4.53;;
19675;SDS011;39539;52.202;9.876;2023-03-01T14:52:27;4.40;;;4.00;;
19675;SDS011;39539;52.202;9.876;2023-03-01T14:54:59;4.88;;;4.25;;
19675;SDS011;39539;52.202;9.876;2023-03-01T14:57:27;5.25;;;4.28;;
19675;SDS011;39539;52.202;9.876;2023-03-01T14:59:54;5.13;;;4.25;;
19675;SDS011;39539;52.202;9.876;2023-03-01T15:02:24;5.00;;;3.65;;
19675;SDS011;39539;52.202;9.876;2023-03-01T15:04:52;4.13;;;3.67;;
19675;SDS011;39539;52.202;9.876;2023-03-01T15:07:46;4.47;;;3.55;;
19675;SDS011;39539;52.202;9.876;2023-03-01T15:10:16;4.10;;;3.70;;
19675;SDS011;39539;52.202;9.876;2023-03-01T15:12:46;4.95;;;4.30;;
19675;SDS011;39539;52.202;9.876;2023-03-01T15:15:26;4.60;;;3.90;;
19675;SDS011;39539;52.202;9.876;2023-03-01T15:17:58;4.68;;;3.58;;
19675;SDS011;39539;52.202;9.876;2023-03-01T15:20:26;4.18;;;3.70;;
19675;SDS011;39539;52.202;9.876;2023-03-01T15:22:54;5.07;;;4.40;;
19675;SDS011;39539;52.202;9.876;2023-03-01T15:25:27;3.97;;;3.58;;
19675;SDS011;39539;52.202;9.876;2023-03-01T15:27:55;5.10;;;3.80;;
19675;SDS011;39539;52.202;9.876;2023-03-01T15:33:19;4.10;;;3.80;;
19675;SDS011;39539;52.202;9.876;2023-03-01T15:35:53;4.32;;;3.92;;
19675;SDS011;39539;52.202;9.876;2023-03-01T15:38:34;5.13;;;4.10;;
19675;SDS011;39539;52.202;9.876;2023-03-01T15:41:22;4.55;;;4.03;;
19675;SDS011;39539;52.202;9.876;2023-03-01T15:43:52;5.13;;;3.90;;
19675;SDS011;39539;52.202;9.876;2023-03-01T15:46:22;4.57;;;4.00;;
19675;SDS011;39539;52.202;9.876;2023-03-01T15:48:51;6.18;;;3.88;;
19675;SDS011;39539;52.202;9.876;2023-03-01T15:51:33;4.88;;;4.07;;
19675;SDS011;39539;52.202;9.876;2023-03-01T15:54:03;4.70;;;4.20;;
19675;SDS011;39539;52.202;9.876;2023-03-01T15:56:35;4.50;;;4.10;;
19675;SDS011;39539;52.202;9.876;2023-03-01T15:59:02;4.28;;;3.88;;
19675;SDS011;39539;52.202;9.876;2023-03-01T16:01:28;4.13;;;3.72;;
19675;SDS011;39539;52.202;9.876;2023-03-01T16:03:54;4.93;;;3.65;;
19675;SDS011;39539;52.202;9.876;2023-03-01T16:06:22;5.05;;;4.47;;
19675;SDS011;39539;52.202;9.876;2023-03-01T16:08:48;6.10;;;4.30;;
19675;SDS011;39539;52.202;9.876;2023-03-01T16:11:14;4.78;;;4.30;;
19675;SDS011;39539;52.202;9.876;2023-03-01T16:13:42;4.80;;;4.20;;
19675;SDS011;39539;52.202;9.876;2023-03-01T16:16:10;4.43;;;3.72;;
19675;SDS011;39539;52.202;9.876;2023-03-01T16:18:39;6.72;;;4.10;;
19675;SDS011;39539;52.202;9.876;2023-03-01T16:21:05;4.15;;;3.75;;
19675;SDS011;39539;52.202;9.876;2023-03-01T16:23:31;5.40;;;4.07;;
19675;SDS011;39539;52.202;9.876;2023-03-01T16:25:59;4.30;;;3.90;;
19675;SDS011;39539;52.202;9.876;2023-03-01T16:28:25;4.50;;;3.75;;
19675;SDS011;39539;52.202;9.876;2023-03-01T16:30:51;4.18;;;3.72;;
19675;SDS011;39539;52.202;9.876;2023-03-01T16:33:17;4.47;;;3.72;;
19675;SDS011;39539;52.202;9.876;2023-03-01T16:35:42;4.35;;;3.92;;
19675;SDS011;39539;52.202;9.876;2023-03-01T16:38:09;4.80;;;4.30;;
19675;SDS011;39539;52.202;9.876;2023-03-01T16:40:35;4.40;;;4.00;;
19675;SDS011;39539;52.202;9.876;2023-03-01T16:43:01;4.07;;;3.70;;
19675;SDS011;39539;52.202;9.876;2023-03-01T16:45:28;4.22;;;3.83;;
19675;SDS011;39539;52.202;9.876;2023-03-01T16:48:00;4.72;;;4.32;;
19675;SDS011;39539;52.202;9.876;2023-03-01T16:50:26;4.72;;;4.28;;